sensor_id;sensor_type;location;lat;lon;timestamp;P1;durP1;ratioP1;P2;durP2;ratioP2
24102;SDS011;12278;53.058;9.028;2023-10-31T00:03:34;5.88;;;4.70;;
24102;SDS011;12278;53.058;9.028;2023-10-31T00:07:35;5.00;;;4.47;;
24102;SDS011;12278;53.058;9.028;2023-10-31T00:11:36;6.32;;;5.00;;
24102;SDS011;12278;53.058;9.028;2023-10-31T00:15:37;6.72;;;5.43;;
24102;SDS011;12278;53.058;9.028;2023-10-31T00:19:37;7.68;;;5.40;;
24102;SDS011;12278;53.058;9.028;2023-10-31T00:23:48;6.00;;;4.40;;
24102;SDS011;12278;53.058;9.028;2023-10-31T00:27:49;5.40;;;4.90;;
24102;SDS011;12278;53.058;9.028;2023-10-31T00:31:49;6.03;;;4.32;;
24102;SDS011;12278;53.058;9.028;2023-10-31T00:35:50;7.70;;;4.50;;
24102;SDS011;12278;53.058;9.028;2023-10-31T00:39:50;5.70;;;4.30;;
24102;SDS011;12278;53.058;9.028;2023-10-31T00:43:51;6.18;;;4.43;;
24102;SDS011;12278;53.058;9.028;2023-10-31T00:47:52;6.63;;;4.47;;
24102;SDS011;12278;53.058;9.028;2023-10-31T00:51:52;5.95;;;4.47;;
24102;SDS011;12278;53.058;9.028;2023-10-31T00:55:53;4.10;;;3.67;;
24102;SDS011;12278;53.058;9.028;2023-10-31T00:59:53;4.10;;;3.70;;
24102;SDS011;12278;53.058;9.028;2023-10-31T01:03:54;4.10;;;3.70;;
24102;SDS011;12278;53.058;9.028;2023-10-31T01:07:55;4.05;;;2.92;;
24102;SDS011;12278;53.058;9.028;2023-10-31T01:11:55;3.53;;;3.17;;
24102;SDS011;12278;53.058;9.028;2023-10-31T01:15:56;4.28;;;3.58;;
24102;SDS011;12278;53.058;9.028;2023-10-31T01:19:57;6.75;;;4.93;;
24102;SDS011;12278;53.058;9.028;2023-10-31T01:23:58;5.32;;;4.45;;
24102;SDS011;12278;53.058;9.028;2023-10-31T01:27:59;7.10;;;4.55;;
24102;SDS011;12278;53.058;9.028;2023-10-31T01:31:59;8.07;;;4.70;;
24102;SDS011;12278;53.058;9.028;2023-10-31T01:36:00;7.25;;;5.30;;
24102;SDS011;12278;53.058;9.028;2023-10-31T01:40:01;6.65;;;4.97;;
24102;SDS011;12278;53.058;9.028;2023-10-31T01:44:02;5.22;;;4.07;;
24102;SDS011;12278;53.058;9.028;2023-10-31T01:48:02;5.47;;;4.43;;
24102;SDS011;12278;53.058;9.028;2023-10-31T01:52:03;5.65;;;5.05;;
24102;SDS011;12278;53.058;9.028;2023-10-31T01:56:05;6.53;;;4.53;;
24102;SDS011;12278;53.058;9.028;2023-10-31T02:00:07;6.00;;;5.10;;
24102;SDS011;12278;53.058;9.028;2023-10-31T02:04:08;6.93;;;4.75;;
24102;SDS011;12278;53.058;9.028;2023-10-31T02:08:09;6.35;;;4.68;;
24102;SDS011;12278;53.058;9.028;2023-10-31T02:12:10;5.15;;;4.07;;
24102;SDS011;12278;53.058;9.028;2023-10-31T02:16:10;5.55;;;4.50;;
24102;SDS011;12278;53.058;9.028;2023-10-31T02:20:11;6.28;;;4.55;;
24102;SDS011;12278;53.058;9.028;2023-10-31T02:24:12;5.55;;;4.50;;
24102;SDS011;12278;53.058;9.028;2023-10-31T02:28:12;6.30;;;4.80;;
24102;SDS011;12278;53.058;9.028;2023-10-31T02:32:13;6.13;;;5.28;;
24102;SDS011;12278;53.058;9.028;2023-10-31T02:36:14;6.25;;;5.60;;
24102;SDS011;12278;53.058;9.028;2023-10-31T02:40:14;6.53;;;4.80;;
24102;SDS011;12278;53.058;9.028;2023-10-31T02:44:15;6.65;;;5.05;;
24102;SDS011;12278;53.058;9.028;2023-10-31T02:48:16;7.85;;;5.80;;
24102;SDS011;12278;53.058;9.028;2023-10-31T02:52:16;8.43;;;5.50;;
24102;SDS011;12278;53.058;9.028;2023-10-31T02:56:17;7.32;;;5.38;;
24102;SDS011;12278;53.058;9.028;2023-10-31T03:00:19;7.93;;;5.47;;
24102;SDS011;12278;53.058;9.028;2023-10-31T03:04:19;6.82;;;5.30;;
24102;SDS011;12278;53.058;9.028;2023-10-31T03:08:20;7.18;;;5.93;;
24102;SDS011;12278;53.058;9.028;2023-10-31T03:12:21;5.88;;;4.97;;
24102;SDS011;12278;53.058;9.028;2023-10-31T03:16:22;7.85;;;5.82;;
24102;SDS011;12278;53.058;9.028;2023-10-31T03:20:22;9.52;;;6.97;;
24102;SDS011;12278;53.058;9.028;2023-10-31T03:24:23;9.50;;;6.03;;
24102;SDS011;12278;53.058;9.028;2023-10-31T03:28:24;9.88;;;6.00;;
24102;SDS011;12278;53.058;9.028;2023-10-31T03:32:25;9.77;;;7.07;;
24102;SDS011;12278;53.058;9.028;2023-10-31T03:36:25;8.32;;;6.03;;
24102;SDS011;12278;53.058;9.028;2023-10-31T03:40:26;10.32;;;7.32;;
24102;SDS011;12278;53.058;9.028;2023-10-31T03:44:26;10.23;;;6.78;;
24102;SDS011;12278;53.058;9.028;2023-10-31T03:48:27;9.23;;;5.82;;
24102;SDS011;12278;53.058;9.028;2023-10-31T03:52:28;8.90;;;6.53;;
24102;SDS011;12278;53.058;9.028;2023-10-31T03:56:28;12.27;;;7.13;;
24102;SDS011;12278;53.058;9.028;2023-10-31T04:00:29;10.73;;;6.60;;
24102;SDS011;12278;53.058;9.028;2023-10-31T04:04:30;8.45;;;5.95;;
24102;SDS011;12278;53.058;9.028;2023-10-31T04:08:30;8.88;;;6.85;;
24102;SDS011;12278;53.058;9.028;2023-10-31T04:12:31;9.75;;;6.47;;
24102;SDS011;12278;53.058;9.028;2023-10-31T04:16:32;8.63;;;6.05;;
24102;SDS011;12278;53.058;9.028;2023-10-31T04:20:38;4.13;;;3.17;;
24102;SDS011;12278;53.058;9.028;2023-10-31T04:24:39;3.90;;;3.15;;
24102;SDS011;12278;53.058;9.028;2023-10-31T04:28:41;4.70;;;3.58;;
24102;SDS011;12278;53.058;9.028;2023-10-31T04:32:41;6.47;;;3.95;;
24102;SDS011;12278;53.058;9.028;2023-10-31T04:36:42;6.95;;;4.88;;
24102;SDS011;12278;53.058;9.028;2023-10-31T04:40:43;6.68;;;4.85;;
24102;SDS011;12278;53.058;9.028;2023-10-31T04:44:43;10.85;;;6.50;;
24102;SDS011;12278;53.058;9.028;2023-10-31T04:48:44;11.02;;;6.97;;
24102;SDS011;12278;53.058;9.028;2023-10-31T04:52:45;11.43;;;9.40;;
24102;SDS011;12278;53.058;9.028;2023-10-31T04:56:46;12.48;;;8.20;;
24102;SDS011;12278;53.058;9.028;2023-10-31T05:00:47;10.02;;;7.45;;
24102;SDS011;12278;53.058;9.028;2023-10-31T05:04:48;10.23;;;7.28;;
24102;SDS011;12278;53.058;9.028;2023-10-31T05:08:51;10.27;;;7.45;;
24102;SDS011;12278;53.058;9.028;2023-10-31T05:12:51;11.75;;;6.75;;
24102;SDS011;12278;53.058;9.028;2023-10-31T05:16:52;7.35;;;4.68;;
24102;SDS011;12278;53.058;9.028;2023-10-31T05:20:53;8.13;;;6.50;;
24102;SDS011;12278;53.058;9.028;2023-10-31T05:24:54;10.07;;;5.80;;
24102;SDS011;12278;53.058;9.028;2023-10-31T05:28:55;10.02;;;7.10;;
24102;SDS011;12278;53.058;9.028;2023-10-31T05:32:59;10.45;;;7.05;;
24102;SDS011;12278;53.058;9.028;2023-10-31T05:37:00;10.00;;;7.18;;
24102;SDS011;12278;53.058;9.028;2023-10-31T05:41:00;8.82;;;5.25;;
24102;SDS011;12278;53.058;9.028;2023-10-31T05:45:01;8.38;;;6.15;;
24102;SDS011;12278;53.058;9.028;2023-10-31T05:49:01;11.38;;;5.68;;
24102;SDS011;12278;53.058;9.028;2023-10-31T05:53:02;7.72;;;5.15;;
24102;SDS011;12278;53.058;9.028;2023-10-31T05:57:03;7.47;;;5.18;;
24102;SDS011;12278;53.058;9.028;2023-10-31T06:01:04;6.70;;;4.85;;
24102;SDS011;12278;53.058;9.028;2023-10-31T06:05:05;3.95;;;2.03;;
24102;SDS011;12278;53.058;9.028;2023-10-31T06:09:06;2.53;;;1.48;;
24102;SDS011;12278;53.058;9.028;2023-10-31T06:13:06;1.02;;;0.90;;
24102;SDS011;12278;53.058;9.028;2023-10-31T06:17:07;0.65;;;0.50;;
24102;SDS011;12278;53.058;9.028;2023-10-31T06:21:08;2.00;;;1.33;;
24102;SDS011;12278;53.058;9.028;2023-10-31T06:25:11;1.63;;;0.35;;
24102;SDS011;12278;53.058;9.028;2023-10-31T06:29:12;2.33;;;0.85;;
24102;SDS011;12278;53.058;9.028;2023-10-31T06:33:12;1.00;;;1.00;;
24102;SDS011;12278;53.058;9.028;2023-10-31T06:37:13;1.40;;;1.30;;
24102;SDS011;12278;53.058;9.028;2023-10-31T06:41:14;1.60;;;1.50;;
24102;SDS011;12278;53.058;9.028;2023-10-31T06:45:14;1.85;;;1.58;;
24102;SDS011;12278;53.058;9.028;2023-10-31T06:49:15;1.30;;;1.20;;
24102;SDS011;12278;53.058;9.028;2023-10-31T06:53:16;1.77;;;1.67;;
24102;SDS011;12278;53.058;9.028;2023-10-31T06:57:17;2.65;;;1.80;;
24102;SDS011;12278;53.058;9.028;2023-10-31T07:01:17;0.95;;;0.95;;
24102;SDS011;12278;53.058;9.028;2023-10-31T07:05:19;2.60;;;2.15;;
24102;SDS011;12278;53.058;9.028;2023-10-31T07:09:23;1.35;;;0.80;;
24102;SDS011;12278;53.058;9.028;2023-10-31T07:13:24;0.70;;;0.60;;
24102;SDS011;12278;53.058;9.028;2023-10-31T07:17:25;0.65;;;0.63;;
24102;SDS011;12278;53.058;9.028;2023-10-31T07:21:26;0.73;;;0.73;;
24102;SDS011;12278;53.058;9.028;2023-10-31T07:25:27;0.50;;;0.50;;
24102;SDS011;12278;53.058;9.028;2023-10-31T07:29:27;0.68;;;0.57;;
24102;SDS011;12278;53.058;9.028;2023-10-31T07:33:28;0.47;;;0.32;;
24102;SDS011;12278;53.058;9.028;2023-10-31T07:37:29;0.50;;;0.50;;
24102;SDS011;12278;53.058;9.028;2023-10-31T07:41:29;0.20;;;0.20;;
24102;SDS011;12278;53.058;9.028;2023-10-31T07:45:30;1.10;;;0.70;;
24102;SDS011;12278;53.058;9.028;2023-10-31T07:49:30;0.75;;;0.40;;
24102;SDS011;12278;53.058;9.028;2023-10-31T07:53:31;1.52;;;0.90;;
24102;SDS011;12278;53.058;9.028;2023-10-31T07:57:32;0.45;;;0.45;;
24102;SDS011;12278;53.058;9.028;2023-10-31T08:01:33;1.40;;;0.30;;
24102;SDS011;12278;53.058;9.028;2023-10-31T08:05:35;0.90;;;0.73;;
24102;SDS011;12278;53.058;9.028;2023-10-31T08:09:35;1.15;;;0.55;;
24102;SDS011;12278;53.058;9.028;2023-10-31T08:13:36;1.08;;;0.50;;
24102;SDS011;12278;53.058;9.028;2023-10-31T08:17:37;0.40;;;0.35;;
24102;SDS011;12278;53.058;9.028;2023-10-31T08:21:38;0.52;;;0.52;;
24102;SDS011;12278;53.058;9.028;2023-10-31T08:25:39;0.68;;;0.40;;
24102;SDS011;12278;53.058;9.028;2023-10-31T08:29:39;0.45;;;0.28;;
24102;SDS011;12278;53.058;9.028;2023-10-31T08:33:40;0.28;;;0.20;;
24102;SDS011;12278;53.058;9.028;2023-10-31T08:37:40;0.85;;;0.32;;
24102;SDS011;12278;53.058;9.028;2023-10-31T08:41:54;2.08;;;0.38;;
24102;SDS011;12278;53.058;9.028;2023-10-31T08:45:55;1.83;;;0.60;;
24102;SDS011;12278;53.058;9.028;2023-10-31T08:49:56;0.65;;;0.55;;
24102;SDS011;12278;53.058;9.028;2023-10-31T08:53:57;0.47;;;0.45;;
24102;SDS011;12278;53.058;9.028;2023-10-31T08:57:57;0.43;;;0.30;;
24102;SDS011;12278;53.058;9.028;2023-10-31T09:01:59;0.43;;;0.43;;
24102;SDS011;12278;53.058;9.028;2023-10-31T09:05:59;0.70;;;0.70;;
24102;SDS011;12278;53.058;9.028;2023-10-31T09:10:00;0.40;;;0.40;;
24102;SDS011;12278;53.058;9.028;2023-10-31T09:14:01;0.95;;;0.45;;
24102;SDS011;12278;53.058;9.028;2023-10-31T09:18:01;0.43;;;0.35;;
24102;SDS011;12278;53.058;9.028;2023-10-31T09:22:02;1.27;;;0.25;;
24102;SDS011;12278;53.058;9.028;2023-10-31T09:26:03;0.75;;;0.50;;
24102;SDS011;12278;53.058;9.028;2023-10-31T09:30:04;1.95;;;1.77;;
24102;SDS011;12278;53.058;9.028;2023-10-31T09:34:05;0.85;;;0.80;;
24102;SDS011;12278;53.058;9.028;2023-10-31T09:38:07;0.40;;;0.40;;
24102;SDS011;12278;53.058;9.028;2023-10-31T09:42:07;1.02;;;0.68;;
24102;SDS011;12278;53.058;9.028;2023-10-31T09:46:08;2.03;;;0.77;;
24102;SDS011;12278;53.058;9.028;2023-10-31T09:50:10;0.98;;;0.80;;
24102;SDS011;12278;53.058;9.028;2023-10-31T09:54:11;0.40;;;0.40;;
24102;SDS011;12278;53.058;9.028;2023-10-31T09:58:15;1.10;;;0.70;;
24102;SDS011;12278;53.058;9.028;2023-10-31T10:02:17;0.88;;;0.65;;
24102;SDS011;12278;53.058;9.028;2023-10-31T10:06:18;0.70;;;0.70;;
24102;SDS011;12278;53.058;9.028;2023-10-31T10:10:21;2.15;;;1.00;;
24102;SDS011;12278;53.058;9.028;2023-10-31T10:14:27;1.33;;;1.00;;
24102;SDS011;12278;53.058;9.028;2023-10-31T10:18:32;1.08;;;0.90;;
24102;SDS011;12278;53.058;9.028;2023-10-31T10:22:40;1.20;;;1.05;;
24102;SDS011;12278;53.058;9.028;2023-10-31T10:26:42;1.30;;;1.20;;
24102;SDS011;12278;53.058;9.028;2023-10-31T10:30:44;1.65;;;1.40;;
24102;SDS011;12278;53.058;9.028;2023-10-31T10:34:46;1.48;;;1.38;;
24102;SDS011;12278;53.058;9.028;2023-10-31T10:38:46;5.68;;;1.85;;
24102;SDS011;12278;53.058;9.028;2023-10-31T10:42:51;2.35;;;1.88;;
24102;SDS011;12278;53.058;9.028;2023-10-31T10:46:58;1.83;;;1.65;;
24102;SDS011;12278;53.058;9.028;2023-10-31T10:55:46;3.53;;;2.25;;
24102;SDS011;12278;53.058;9.028;2023-10-31T10:59:51;2.13;;;1.60;;
24102;SDS011;12278;53.058;9.028;2023-10-31T11:03:58;1.73;;;1.63;;
24102;SDS011;12278;53.058;9.028;2023-10-31T11:07:59;1.75;;;1.63;;
24102;SDS011;12278;53.058;9.028;2023-10-31T11:12:02;3.28;;;1.55;;
24102;SDS011;12278;53.058;9.028;2023-10-31T11:16:04;1.20;;;1.15;;
24102;SDS011;12278;53.058;9.028;2023-10-31T11:20:11;1.42;;;1.13;;
24102;SDS011;12278;53.058;9.028;2023-10-31T11:24:16;2.63;;;1.30;;
24102;SDS011;12278;53.058;9.028;2023-10-31T11:28:17;2.05;;;1.85;;
24102;SDS011;12278;53.058;9.028;2023-10-31T11:32:18;3.80;;;2.80;;
24102;SDS011;12278;53.058;9.028;2023-10-31T11:36:22;3.05;;;2.75;;
24102;SDS011;12278;53.058;9.028;2023-10-31T11:40:23;3.35;;;2.92;;
24102;SDS011;12278;53.058;9.028;2023-10-31T11:44:26;4.95;;;3.97;;
24102;SDS011;12278;53.058;9.028;2023-10-31T11:48:46;3.45;;;3.15;;
24102;SDS011;12278;53.058;9.028;2023-10-31T11:53:07;5.07;;;3.53;;
24102;SDS011;12278;53.058;9.028;2023-10-31T11:57:25;4.05;;;3.00;;
24102;SDS011;12278;53.058;9.028;2023-10-31T12:01:28;3.17;;;2.47;;
24102;SDS011;12278;53.058;9.028;2023-10-31T12:05:29;3.67;;;2.72;;
24102;SDS011;12278;53.058;9.028;2023-10-31T12:09:30;2.53;;;2.22;;
24102;SDS011;12278;53.058;9.028;2023-10-31T12:13:30;5.05;;;2.95;;
24102;SDS011;12278;53.058;9.028;2023-10-31T12:17:31;3.88;;;2.75;;
24102;SDS011;12278;53.058;9.028;2023-10-31T12:21:39;2.88;;;2.63;;
24102;SDS011;12278;53.058;9.028;2023-10-31T12:25:49;6.00;;;2.72;;
24102;SDS011;12278;53.058;9.028;2023-10-31T12:30:02;3.13;;;2.17;;
24102;SDS011;12278;53.058;9.028;2023-10-31T12:34:06;4.70;;;2.20;;
24102;SDS011;12278;53.058;9.028;2023-10-31T12:38:07;3.92;;;1.92;;
24102;SDS011;12278;53.058;9.028;2023-10-31T12:42:11;2.17;;;1.50;;
24102;SDS011;12278;53.058;9.028;2023-10-31T12:46:25;1.77;;;1.63;;
24102;SDS011;12278;53.058;9.028;2023-10-31T12:50:26;4.70;;;2.50;;
24102;SDS011;12278;53.058;9.028;2023-10-31T12:54:30;3.85;;;2.45;;
24102;SDS011;12278;53.058;9.028;2023-10-31T12:58:32;5.45;;;2.22;;
24102;SDS011;12278;53.058;9.028;2023-10-31T13:02:33;1.33;;;1.23;;
24102;SDS011;12278;53.058;9.028;2023-10-31T13:06:34;2.83;;;1.13;;
24102;SDS011;12278;53.058;9.028;2023-10-31T13:10:35;1.08;;;1.00;;
24102;SDS011;12278;53.058;9.028;2023-10-31T13:14:36;0.52;;;0.30;;
24102;SDS011;12278;53.058;9.028;2023-10-31T13:18:39;1.17;;;0.43;;
24102;SDS011;12278;53.058;9.028;2023-10-31T13:22:40;5.22;;;0.35;;
24102;SDS011;12278;53.058;9.028;2023-10-31T13:26:41;1.63;;;0.32;;
24102;SDS011;12278;53.058;9.028;2023-10-31T13:30:43;0.20;;;0.20;;
24102;SDS011;12278;53.058;9.028;2023-10-31T13:34:46;0.68;;;0.47;;
24102;SDS011;12278;53.058;9.028;2023-10-31T13:38:46;0.45;;;0.43;;
24102;SDS011;12278;53.058;9.028;2023-10-31T13:42:48;0.70;;;0.20;;
24102;SDS011;12278;53.058;9.028;2023-10-31T13:46:49;2.05;;;0.55;;
24102;SDS011;12278;53.058;9.028;2023-10-31T13:50:49;0.20;;;0.20;;
24102;SDS011;12278;53.058;9.028;2023-10-31T13:54:50;0.20;;;0.20;;
24102;SDS011;12278;53.058;9.028;2023-10-31T13:58:50;0.40;;;0.30;;
24102;SDS011;12278;53.058;9.028;2023-10-31T14:02:51;0.17;;;0.17;;
24102;SDS011;12278;53.058;9.028;2023-10-31T14:06:52;0.85;;;0.60;;
24102;SDS011;12278;53.058;9.028;2023-10-31T14:10:52;0.10;;;0.10;;
24102;SDS011;12278;53.058;9.028;2023-10-31T14:14:54;0.82;;;0.63;;
24102;SDS011;12278;53.058;9.028;2023-10-31T14:18:55;0.30;;;0.30;;
24102;SDS011;12278;53.058;9.028;2023-10-31T14:22:56;1.23;;;0.20;;
24102;SDS011;12278;53.058;9.028;2023-10-31T14:26:57;0.22;;;0.22;;
24102;SDS011;12278;53.058;9.028;2023-10-31T14:30:59;0.93;;;0.90;;
24102;SDS011;12278;53.058;9.028;2023-10-31T14:34:59;0.75;;;0.32;;
24102;SDS011;12278;53.058;9.028;2023-10-31T14:39:00;0.40;;;0.30;;
24102;SDS011;12278;53.058;9.028;2023-10-31T14:43:00;1.33;;;0.32;;
24102;SDS011;12278;53.058;9.028;2023-10-31T14:47:01;1.55;;;0.47;;
24102;SDS011;12278;53.058;9.028;2023-10-31T14:51:02;0.75;;;0.68;;
24102;SDS011;12278;53.058;9.028;2023-10-31T14:55:03;1.20;;;0.50;;
24102;SDS011;12278;53.058;9.028;2023-10-31T14:59:04;0.63;;;0.60;;
24102;SDS011;12278;53.058;9.028;2023-10-31T15:03:04;0.55;;;0.43;;
24102;SDS011;12278;53.058;9.028;2023-10-31T15:07:05;1.77;;;0.90;;
24102;SDS011;12278;53.058;9.028;2023-10-31T15:11:06;1.52;;;0.68;;
24102;SDS011;12278;53.058;9.028;2023-10-31T15:15:06;3.05;;;1.67;;
24102;SDS011;12278;53.058;9.028;2023-10-31T15:19:07;2.85;;;1.00;;
24102;SDS011;12278;53.058;9.028;2023-10-31T15:23:08;1.48;;;0.70;;
24102;SDS011;12278;53.058;9.028;2023-10-31T15:27:09;1.15;;;0.68;;
24102;SDS011;12278;53.058;9.028;2023-10-31T15:31:10;1.38;;;1.10;;
24102;SDS011;12278;53.058;9.028;2023-10-31T15:35:11;1.67;;;0.98;;
24102;SDS011;12278;53.058;9.028;2023-10-31T15:39:12;7.25;;;1.95;;
24102;SDS011;12278;53.058;9.028;2023-10-31T15:43:13;1.95;;;1.05;;
24102;SDS011;12278;53.058;9.028;2023-10-31T15:47:14;1.42;;;1.30;;
24102;SDS011;12278;53.058;9.028;2023-10-31T15:51:14;3.80;;;1.05;;
24102;SDS011;12278;53.058;9.028;2023-10-31T15:55:15;2.33;;;1.02;;
24102;SDS011;12278;53.058;9.028;2023-10-31T15:59:16;0.98;;;0.77;;
24102;SDS011;12278;53.058;9.028;2023-10-31T16:03:16;3.00;;;1.48;;
24102;SDS011;12278;53.058;9.028;2023-10-31T16:07:17;3.10;;;1.20;;
24102;SDS011;12278;53.058;9.028;2023-10-31T16:11:18;2.83;;;1.48;;
24102;SDS011;12278;53.058;9.028;2023-10-31T16:15:18;1.23;;;1.13;;
24102;SDS011;12278;53.058;9.028;2023-10-31T16:19:19;4.43;;;2.17;;
24102;SDS011;12278;53.058;9.028;2023-10-31T16:23:19;1.88;;;1.50;;
24102;SDS011;12278;53.058;9.028;2023-10-31T16:27:22;1.73;;;1.42;;
24102;SDS011;12278;53.058;9.028;2023-10-31T16:31:23;4.57;;;2.30;;
24102;SDS011;12278;53.058;9.028;2023-10-31T16:35:24;5.07;;;3.17;;
24102;SDS011;12278;53.058;9.028;2023-10-31T16:39:25;4.50;;;3.42;;
24102;SDS011;12278;53.058;9.028;2023-10-31T16:43:25;4.28;;;2.92;;
24102;SDS011;12278;53.058;9.028;2023-10-31T16:47:26;2.92;;;2.40;;
24102;SDS011;12278;53.058;9.028;2023-10-31T16:51:27;3.90;;;3.22;;
24102;SDS011;12278;53.058;9.028;2023-10-31T16:55:29;4.85;;;3.55;;
24102;SDS011;12278;53.058;9.028;2023-10-31T16:59:29;6.70;;;4.63;;
24102;SDS011;12278;53.058;9.028;2023-10-31T17:03:30;9.15;;;8.13;;
24102;SDS011;12278;53.058;9.028;2023-10-31T17:07:30;14.48;;;7.47;;
24102;SDS011;12278;53.058;9.028;2023-10-31T17:11:31;4.90;;;3.83;;
24102;SDS011;12278;53.058;9.028;2023-10-31T17:15:33;7.43;;;4.10;;
24102;SDS011;12278;53.058;9.028;2023-10-31T17:19:33;5.57;;;4.63;;
24102;SDS011;12278;53.058;9.028;2023-10-31T17:23:34;3.47;;;3.17;;
24102;SDS011;12278;53.058;9.028;2023-10-31T17:27:35;5.28;;;3.78;;
24102;SDS011;12278;53.058;9.028;2023-10-31T17:31:37;5.20;;;3.95;;
24102;SDS011;12278;53.058;9.028;2023-10-31T17:35:41;8.50;;;5.50;;
24102;SDS011;12278;53.058;9.028;2023-10-31T17:39:42;14.65;;;5.10;;
24102;SDS011;12278;53.058;9.028;2023-10-31T17:43:43;4.45;;;3.80;;
24102;SDS011;12278;53.058;9.028;2023-10-31T17:47:43;5.38;;;3.45;;
24102;SDS011;12278;53.058;9.028;2023-10-31T17:51:44;3.53;;;2.65;;
24102;SDS011;12278;53.058;9.028;2023-10-31T17:55:46;3.50;;;2.75;;
24102;SDS011;12278;53.058;9.028;2023-10-31T17:59:48;4.47;;;2.45;;
24102;SDS011;12278;53.058;9.028;2023-10-31T18:03:54;4.78;;;2.65;;
24102;SDS011;12278;53.058;9.028;2023-10-31T18:07:55;4.47;;;3.05;;
24102;SDS011;12278;53.058;9.028;2023-10-31T18:11:56;5.63;;;4.05;;
24102;SDS011;12278;53.058;9.028;2023-10-31T18:15:56;3.30;;;2.88;;
24102;SDS011;12278;53.058;9.028;2023-10-31T18:19:57;6.22;;;3.83;;
24102;SDS011;12278;53.058;9.028;2023-10-31T18:23:58;5.00;;;3.20;;
24102;SDS011;12278;53.058;9.028;2023-10-31T18:27:58;4.03;;;2.55;;
24102;SDS011;12278;53.058;9.028;2023-10-31T18:32:01;5.15;;;3.22;;
24102;SDS011;12278;53.058;9.028;2023-10-31T18:36:13;4.32;;;2.10;;
24102;SDS011;12278;53.058;9.028;2023-10-31T18:40:15;7.32;;;4.05;;
24102;SDS011;12278;53.058;9.028;2023-10-31T18:44:21;4.72;;;3.17;;
24102;SDS011;12278;53.058;9.028;2023-10-31T18:48:31;9.98;;;5.43;;
24102;SDS011;12278;53.058;9.028;2023-10-31T18:52:32;9.30;;;6.05;;
24102;SDS011;12278;53.058;9.028;2023-10-31T18:56:32;8.63;;;5.35;;
24102;SDS011;12278;53.058;9.028;2023-10-31T19:00:33;8.73;;;4.55;;
24102;SDS011;12278;53.058;9.028;2023-10-31T19:04:35;10.48;;;5.70;;
24102;SDS011;12278;53.058;9.028;2023-10-31T19:08:41;10.65;;;6.32;;
24102;SDS011;12278;53.058;9.028;2023-10-31T19:12:45;11.88;;;5.82;;
24102;SDS011;12278;53.058;9.028;2023-10-31T19:16:45;5.85;;;4.20;;
24102;SDS011;12278;53.058;9.028;2023-10-31T19:20:46;7.93;;;4.53;;
24102;SDS011;12278;53.058;9.028;2023-10-31T19:24:47;7.20;;;4.38;;
24102;SDS011;12278;53.058;9.028;2023-10-31T19:28:48;7.07;;;4.90;;
24102;SDS011;12278;53.058;9.028;2023-10-31T19:32:48;5.53;;;3.88;;
24102;SDS011;12278;53.058;9.028;2023-10-31T19:36:50;5.53;;;4.07;;
24102;SDS011;12278;53.058;9.028;2023-10-31T19:40:50;6.22;;;4.95;;
24102;SDS011;12278;53.058;9.028;2023-10-31T19:44:51;8.25;;;5.68;;
24102;SDS011;12278;53.058;9.028;2023-10-31T19:48:52;6.45;;;5.07;;
24102;SDS011;12278;53.058;9.028;2023-10-31T19:52:55;7.22;;;4.78;;
24102;SDS011;12278;53.058;9.028;2023-10-31T19:56:56;8.32;;;5.60;;
24102;SDS011;12278;53.058;9.028;2023-10-31T20:00:56;5.38;;;4.88;;
24102;SDS011;12278;53.058;9.028;2023-10-31T20:04:57;8.93;;;4.15;;
24102;SDS011;12278;53.058;9.028;2023-10-31T20:08:57;6.68;;;4.05;;
24102;SDS011;12278;53.058;9.028;2023-10-31T20:12:58;6.68;;;5.65;;
24102;SDS011;12278;53.058;9.028;2023-10-31T20:16:59;6.55;;;3.13;;
24102;SDS011;12278;53.058;9.028;2023-10-31T20:21:01;3.75;;;2.80;;
24102;SDS011;12278;53.058;9.028;2023-10-31T20:25:09;3.97;;;2.28;;
24102;SDS011;12278;53.058;9.028;2023-10-31T20:29:10;5.30;;;2.17;;
24102;SDS011;12278;53.058;9.028;2023-10-31T20:33:11;7.55;;;3.03;;
24102;SDS011;12278;53.058;9.028;2023-10-31T20:37:12;4.78;;;2.75;;
24102;SDS011;12278;53.058;9.028;2023-10-31T20:41:12;4.45;;;3.83;;
24102;SDS011;12278;53.058;9.028;2023-10-31T20:45:13;4.03;;;2.55;;
24102;SDS011;12278;53.058;9.028;2023-10-31T20:49:14;2.47;;;1.60;;
24102;SDS011;12278;53.058;9.028;2023-10-31T20:53:15;6.47;;;2.40;;
24102;SDS011;12278;53.058;9.028;2023-10-31T20:57:15;3.47;;;1.90;;
24102;SDS011;12278;53.058;9.028;2023-10-31T21:01:16;5.85;;;2.28;;
24102;SDS011;12278;53.058;9.028;2023-10-31T21:05:17;3.08;;;2.15;;
24102;SDS011;12278;53.058;9.028;2023-10-31T21:09:17;4.45;;;1.90;;
24102;SDS011;12278;53.058;9.028;2023-10-31T21:13:18;7.30;;;2.50;;
24102;SDS011;12278;53.058;9.028;2023-10-31T21:17:19;10.48;;;1.92;;
24102;SDS011;12278;53.058;9.028;2023-10-31T21:21:20;5.40;;;2.22;;
24102;SDS011;12278;53.058;9.028;2023-10-31T21:25:22;1.77;;;1.30;;
24102;SDS011;12278;53.058;9.028;2023-10-31T21:29:25;3.40;;;1.67;;
24102;SDS011;12278;53.058;9.028;2023-10-31T21:33:25;4.03;;;1.80;;
24102;SDS011;12278;53.058;9.028;2023-10-31T21:37:26;3.83;;;1.77;;
24102;SDS011;12278;53.058;9.028;2023-10-31T21:41:27;2.38;;;2.17;;
24102;SDS011;12278;53.058;9.028;2023-10-31T21:45:28;2.58;;;1.42;;
24102;SDS011;12278;53.058;9.028;2023-10-31T21:49:29;3.67;;;2.20;;
24102;SDS011;12278;53.058;9.028;2023-10-31T21:53:30;2.17;;;1.50;;
24102;SDS011;12278;53.058;9.028;2023-10-31T21:57:30;1.38;;;1.10;;
24102;SDS011;12278;53.058;9.028;2023-10-31T22:01:31;2.40;;;1.50;;
24102;SDS011;12278;53.058;9.028;2023-10-31T22:05:32;4.70;;;1.80;;
24102;SDS011;12278;53.058;9.028;2023-10-31T22:09:32;2.25;;;1.60;;
24102;SDS011;12278;53.058;9.028;2023-10-31T22:13:33;3.70;;;2.00;;
24102;SDS011;12278;53.058;9.028;2023-10-31T22:17:34;3.65;;;1.80;;
24102;SDS011;12278;53.058;9.028;2023-10-31T22:21:34;2.38;;;1.92;;
24102;SDS011;12278;53.058;9.028;2023-10-31T22:25:35;2.63;;;1.75;;
24102;SDS011;12278;53.058;9.028;2023-10-31T22:29:36;1.85;;;1.40;;
24102;SDS011;12278;53.058;9.028;2023-10-31T22:33:38;2.92;;;1.67;;
24102;SDS011;12278;53.058;9.028;2023-10-31T22:37:39;3.67;;;1.33;;
24102;SDS011;12278;53.058;9.028;2023-10-31T22:41:40;2.60;;;1.75;;
24102;SDS011;12278;53.058;9.028;2023-10-31T22:45:41;3.25;;;1.77;;
24102;SDS011;12278;53.058;9.028;2023-10-31T22:49:42;1.40;;;1.17;;
24102;SDS011;12278;53.058;9.028;2023-10-31T22:53:43;1.85;;;1.38;;
24102;SDS011;12278;53.058;9.028;2023-10-31T22:57:44;2.75;;;1.55;;
24102;SDS011;12278;53.058;9.028;2023-10-31T23:01:47;3.20;;;2.28;;
24102;SDS011;12278;53.058;9.028;2023-10-31T23:05:48;2.38;;;1.90;;
24102;SDS011;12278;53.058;9.028;2023-10-31T23:09:49;3.13;;;1.60;;
24102;SDS011;12278;53.058;9.028;2023-10-31T23:13:49;2.33;;;1.20;;
24102;SDS011;12278;53.058;9.028;2023-10-31T23:17:50;3.03;;;1.83;;
24102;SDS011;12278;53.058;9.028;2023-10-31T23:21:52;3.08;;;1.70;;
24102;SDS011;12278;53.058;9.028;2023-10-31T23:25:54;4.85;;;2.25;;
24102;SDS011;12278;53.058;9.028;2023-10-31T23:29:55;1.55;;;1.40;;
24102;SDS011;12278;53.058;9.028;2023-10-31T23:33:56;1.98;;;1.65;;
24102;SDS011;12278;53.058;9.028;2023-10-31T23:37:57;3.40;;;1.75;;
24102;SDS011;12278;53.058;9.028;2023-10-31T23:41:58;1.67;;;1.50;;
24102;SDS011;12278;53.058;9.028;2023-10-31T23:45:58;4.95;;;1.42;;
24102;SDS011;12278;53.058;9.028;2023-10-31T23:49:59;2.33;;;1.60;;
24102;SDS011;12278;53.058;9.028;2023-10-31T23:54:00;2.70;;;1.40;;
24102;SDS011;12278;53.058;9.028;2023-10-31T23:58:01;4.03;;;1.58;;
